createdAt,value
2019-03-28T00:00:49.637Z,8.00
2019-03-28T00:01:49.605Z,8.00
2019-03-28T00:02:49.592Z,8.00
2019-03-28T00:03:49.581Z,8.00
2019-03-28T00:04:49.580Z,8.00
2019-03-28T00:06:02.561Z,4.00
2019-03-28T00:06:49.560Z,8.00
2019-03-28T00:07:49.543Z,8.00
2019-03-28T00:08:49.539Z,8.00
2019-03-28T00:09:49.534Z,8.00
2019-03-28T00:10:49.559Z,8.00
2019-03-28T00:11:49.657Z,8.00
2019-03-28T00:12:49.488Z,8.00
2019-03-28T00:13:49.485Z,8.00
2019-03-28T00:14:49.474Z,8.00
2019-03-28T00:15:49.461Z,8.00
2019-03-28T00:16:49.457Z,8.00
2019-03-28T00:17:49.441Z,8.00
2019-03-28T00:18:49.430Z,8.00
2019-03-28T00:19:49.422Z,8.00
2019-03-28T00:20:49.451Z,4.00
2019-03-28T00:21:49.403Z,8.00
2019-03-28T00:22:49.389Z,8.00
2019-03-28T00:23:49.386Z,8.00
2019-03-28T00:24:49.365Z,8.00
2019-03-28T00:25:49.358Z,8.00
2019-03-28T00:26:49.381Z,8.00
2019-03-28T00:27:49.335Z,8.00
2019-03-28T00:28:49.327Z,8.00
2019-03-28T00:29:49.314Z,8.00
2019-03-28T00:30:49.303Z,8.00
2019-03-28T00:31:49.293Z,8.00
2019-03-28T00:32:49.457Z,8.00
2019-03-28T00:33:49.279Z,4.00
2019-03-28T00:34:49.260Z,8.00
2019-03-28T00:35:49.253Z,8.00
2019-03-28T00:36:59.134Z,8.00
2019-03-28T00:37:49.232Z,8.00
2019-03-28T00:38:49.298Z,8.00
2019-03-28T00:39:49.212Z,8.00
2019-03-28T00:40:49.200Z,8.00
2019-03-28T00:41:49.193Z,8.00
2019-03-28T00:42:49.187Z,8.00
2019-03-28T00:43:49.168Z,8.00
2019-03-28T00:44:49.193Z,8.00
2019-03-28T00:45:49.153Z,8.00
2019-03-28T00:46:49.140Z,8.00
2019-03-28T00:47:49.130Z,8.00
2019-03-28T00:48:49.160Z,8.00
2019-03-28T00:49:49.103Z,8.00
2019-03-28T00:50:49.093Z,8.00
2019-03-28T00:51:49.084Z,8.00
2019-03-28T00:52:49.081Z,8.00
2019-03-28T00:53:49.065Z,8.00
2019-03-28T00:54:49.065Z,8.00
2019-03-28T00:55:49.044Z,8.00
2019-03-28T00:56:49.033Z,8.00
2019-03-28T00:57:49.020Z,8.00
2019-03-28T00:58:49.013Z,8.00
2019-03-28T00:59:49.302Z,8.00
2019-03-28T01:00:49.024Z,8.00
2019-03-28T01:01:48.982Z,8.00
2019-03-28T01:02:48.970Z,8.00
2019-03-28T01:03:48.959Z,8.00
2019-03-28T01:04:48.946Z,8.00
2019-03-28T01:05:48.943Z,8.00
2019-03-28T01:06:48.934Z,8.00
2019-03-28T01:08:00.010Z,8.00
2019-03-28T01:08:48.904Z,8.00
2019-03-28T01:09:48.892Z,8.00
2019-03-28T01:10:48.898Z,8.00
2019-03-28T01:11:48.872Z,8.00
2019-03-28T01:12:48.865Z,8.00
2019-03-28T01:13:48.858Z,8.00
2019-03-28T01:14:48.848Z,8.00
2019-03-28T01:15:49.277Z,8.00
2019-03-28T01:16:48.826Z,8.00
2019-03-28T01:17:48.818Z,8.00
2019-03-28T01:18:48.798Z,8.00
2019-03-28T01:19:48.792Z,8.00
2019-03-28T01:20:48.789Z,8.00
2019-03-28T01:21:48.775Z,8.00
2019-03-28T01:22:48.774Z,8.00
2019-03-28T01:23:48.753Z,8.00
2019-03-28T01:24:48.747Z,8.00
2019-03-28T01:25:48.726Z,8.00
2019-03-28T01:26:57.133Z,8.00
2019-03-28T01:27:50.266Z,4.00
2019-03-28T01:28:48.701Z,8.00
2019-03-28T01:29:48.685Z,8.00
2019-03-28T01:30:48.681Z,8.00
2019-03-28T01:31:48.672Z,8.00
2019-03-28T01:32:48.655Z,8.00
2019-03-28T01:33:48.657Z,8.00
2019-03-28T01:34:48.641Z,8.00
2019-03-28T01:35:48.622Z,8.00
2019-03-28T01:36:48.617Z,8.00
2019-03-28T01:37:48.607Z,8.00
2019-03-28T01:38:59.770Z,8.00
2019-03-28T01:39:48.584Z,8.00
2019-03-28T01:40:48.573Z,8.00
2019-03-28T01:41:48.558Z,8.00
2019-03-28T01:42:48.548Z,8.00
2019-03-28T01:43:48.545Z,8.00
2019-03-28T01:44:48.568Z,8.00
2019-03-28T01:45:48.517Z,4.00
2019-03-28T01:46:48.512Z,8.00
2019-03-28T01:47:48.499Z,8.00
2019-03-28T01:48:48.485Z,8.00
2019-03-28T01:49:48.475Z,8.00
2019-03-28T01:50:48.507Z,8.00
2019-03-28T01:51:48.460Z,8.00
2019-03-28T01:52:48.445Z,8.00
2019-03-28T01:53:48.439Z,8.00
2019-03-28T01:54:48.420Z,8.00
2019-03-28T01:55:48.408Z,8.00
2019-03-28T01:56:48.409Z,8.00
2019-03-28T01:57:48.394Z,4.00
2019-03-28T01:58:48.387Z,8.00
2019-03-28T01:59:48.371Z,8.00
2019-03-28T02:00:48.365Z,8.00
2019-03-28T02:01:48.385Z,8.00
2019-03-28T02:02:48.336Z,8.00
2019-03-28T02:03:48.331Z,8.00
2019-03-28T02:04:48.314Z,8.00
2019-03-28T02:05:48.310Z,8.00
2019-03-28T02:06:48.301Z,8.00
2019-03-28T02:07:48.343Z,8.00
2019-03-28T02:08:48.280Z,8.00
2019-03-28T02:09:58.515Z,8.00
2019-03-28T02:10:48.256Z,8.00
2019-03-28T02:11:48.245Z,8.00
2019-03-28T02:12:48.235Z,8.00
2019-03-28T02:13:48.240Z,8.00
2019-03-28T02:14:48.215Z,8.00
2019-03-28T02:15:48.200Z,8.00
2019-03-28T02:16:48.203Z,8.00
2019-03-28T02:17:48.186Z,8.00
2019-03-28T02:18:48.178Z,8.00
2019-03-28T02:19:48.161Z,8.00
2019-03-28T02:20:48.155Z,8.00
2019-03-28T02:21:48.140Z,8.00
2019-03-28T02:22:48.129Z,8.00
2019-03-28T02:23:48.163Z,8.00
2019-03-28T02:24:48.107Z,8.00
2019-03-28T02:25:48.102Z,4.00
2019-03-28T02:26:48.090Z,8.00
2019-03-28T02:27:48.076Z,8.00
2019-03-28T02:28:48.067Z,8.00
2019-03-28T02:29:48.070Z,8.00
2019-03-28T02:30:48.082Z,8.00
2019-03-28T02:31:48.036Z,8.00
2019-03-28T02:32:48.028Z,8.00
2019-03-28T02:33:48.023Z,4.00
2019-03-28T02:34:49.104Z,8.00
2019-03-28T02:35:47.992Z,8.00
2019-03-28T02:36:47.990Z,4.00
2019-03-28T02:37:47.970Z,8.00
2019-03-28T02:38:47.967Z,8.00
2019-03-28T02:39:47.947Z,4.00
2019-03-28T02:40:58.868Z,4.00
2019-03-28T02:41:47.939Z,4.00
2019-03-28T02:42:47.920Z,4.00
2019-03-28T02:43:47.908Z,4.00
2019-03-28T02:44:47.895Z,4.00
2019-03-28T02:45:47.895Z,4.00
2019-03-28T02:46:47.892Z,4.00
2019-03-28T02:47:47.879Z,4.00
2019-03-28T02:48:47.881Z,4.00
2019-03-28T02:49:47.848Z,4.00
2019-03-28T02:50:47.839Z,4.00
2019-03-28T02:51:47.834Z,4.00
2019-03-28T02:52:47.858Z,4.00
2019-03-28T02:53:47.809Z,4.00
2019-03-28T02:54:47.802Z,4.00
2019-03-28T02:55:47.789Z,4.00
2019-03-28T02:56:47.783Z,4.00
2019-03-28T02:57:47.761Z,4.00
2019-03-28T02:58:47.764Z,4.00
2019-03-28T02:59:47.741Z,4.00
2019-03-28T03:00:48.075Z,8.00
2019-03-28T03:01:47.729Z,8.00
2019-03-28T03:02:47.714Z,8.00
2019-03-28T03:03:47.877Z,8.00
2019-03-28T03:04:47.686Z,8.00
2019-03-28T03:05:47.686Z,8.00
2019-03-28T03:06:47.672Z,8.00
2019-03-28T03:07:47.662Z,8.00
2019-03-28T03:08:47.649Z,8.00
2019-03-28T03:09:47.685Z,8.00
2019-03-28T03:10:47.637Z,12.00
2019-03-28T03:11:57.783Z,8.00
2019-03-28T03:12:47.603Z,12.00
2019-03-28T03:13:47.599Z,8.00
2019-03-28T03:14:47.590Z,12.00
2019-03-28T03:15:47.609Z,12.00
2019-03-28T03:16:48.828Z,16.00
2019-03-28T03:17:47.559Z,16.00
2019-03-28T03:18:47.577Z,16.00
2019-03-28T03:19:47.547Z,20.00
2019-03-28T03:20:47.522Z,24.00
2019-03-28T03:21:47.548Z,24.00
2019-03-28T03:22:47.506Z,28.00
2019-03-28T03:23:47.492Z,32.00
2019-03-28T03:24:47.507Z,32.00
2019-03-28T03:25:47.471Z,36.00
2019-03-28T03:26:47.462Z,40.00
2019-03-28T03:27:57.718Z,44.00
2019-03-28T03:28:48.438Z,52.00
2019-03-28T03:29:47.425Z,56.00
2019-03-28T03:30:47.434Z,64.00
2019-03-28T03:31:47.422Z,72.00
2019-03-28T03:32:47.408Z,80.00
2019-03-28T03:33:47.393Z,88.00
2019-03-28T03:34:47.387Z,100.00
2019-03-28T03:35:47.363Z,108.00
2019-03-28T03:36:47.385Z,120.00
2019-03-28T03:37:47.516Z,132.00
2019-03-28T03:38:47.777Z,144.00
2019-03-28T03:39:47.324Z,156.00
2019-03-28T03:40:47.323Z,172.00
2019-03-28T03:41:47.300Z,184.00
2019-03-28T03:42:57.703Z,196.00
2019-03-28T03:43:47.287Z,208.00
2019-03-28T03:44:47.275Z,220.00
2019-03-28T03:45:47.263Z,236.00
2019-03-28T03:46:47.246Z,248.00
2019-03-28T03:47:47.264Z,264.00
2019-03-28T03:48:47.255Z,284.00
2019-03-28T03:49:47.220Z,308.00
2019-03-28T03:50:47.218Z,336.00
2019-03-28T03:51:47.196Z,364.00
2019-03-28T03:52:47.297Z,388.00
2019-03-28T03:53:47.188Z,416.00
2019-03-28T03:54:47.219Z,440.00
2019-03-28T03:55:47.177Z,468.00
2019-03-28T03:56:47.160Z,488.00
2019-03-28T03:57:47.135Z,508.00
2019-03-28T03:58:47.135Z,528.00
2019-03-28T03:59:47.121Z,544.00
2019-03-28T04:00:47.119Z,560.00
2019-03-28T04:01:47.092Z,580.00
2019-03-28T04:02:47.108Z,600.00
2019-03-28T04:03:47.079Z,624.00
2019-03-28T04:04:47.741Z,648.00
2019-03-28T04:05:47.069Z,680.00
2019-03-28T04:06:47.041Z,708.00
2019-03-28T04:07:47.029Z,736.00
2019-03-28T04:08:47.032Z,768.00
2019-03-28T04:09:47.020Z,800.00
2019-03-28T04:10:47.011Z,828.00
2019-03-28T04:11:46.993Z,868.00
2019-03-28T04:12:46.984Z,908.00
2019-03-28T04:13:57.340Z,952.00
2019-03-28T04:14:46.957Z,996.00
2019-03-28T04:15:46.985Z,1052.00
2019-03-28T04:16:46.937Z,1104.00
2019-03-28T04:17:47.726Z,1164.00
2019-03-28T04:18:46.941Z,1224.00
2019-03-28T04:19:46.911Z,1284.00
2019-03-28T04:20:46.897Z,1348.00
2019-03-28T04:21:46.944Z,1412.00
2019-03-28T04:22:46.879Z,1480.00
2019-03-28T04:23:46.864Z,1548.00
2019-03-28T04:24:47.724Z,1608.00
2019-03-28T04:25:46.849Z,1672.00
2019-03-28T04:26:46.850Z,1728.00
2019-03-28T04:27:47.070Z,1780.00
2019-03-28T04:28:46.814Z,1828.00
2019-03-28T04:29:46.803Z,1872.00
2019-03-28T04:30:46.829Z,1912.00
2019-03-28T04:31:46.788Z,1948.00
2019-03-28T04:32:47.011Z,1984.00
2019-03-28T04:33:46.774Z,2012.00
2019-03-28T04:34:46.751Z,2040.00
2019-03-28T04:35:46.741Z,2056.00
2019-03-28T04:36:46.728Z,2072.00
2019-03-28T04:37:46.758Z,2092.00
2019-03-28T04:38:46.724Z,2124.00
2019-03-28T04:39:46.708Z,2152.00
2019-03-28T04:40:46.691Z,2204.00
2019-03-28T04:41:46.679Z,2272.00
2019-03-28T04:42:46.672Z,2360.00
2019-03-28T04:43:46.697Z,2460.00
2019-03-28T04:44:57.401Z,2576.00
2019-03-28T04:45:46.639Z,2704.00
2019-03-28T04:46:46.627Z,2844.00
2019-03-28T04:47:46.613Z,3000.00
2019-03-28T04:48:46.607Z,3172.00
2019-03-28T04:49:46.624Z,3372.00
2019-03-28T04:50:46.582Z,3572.00
2019-03-28T04:51:46.578Z,3756.00
2019-03-28T04:52:46.580Z,3924.00
2019-03-28T04:53:46.576Z,4048.00
2019-03-28T04:54:46.544Z,4136.00
2019-03-28T04:55:47.252Z,4168.00
2019-03-28T04:56:46.524Z,4208.00
2019-03-28T04:57:46.528Z,4200.00
2019-03-28T04:58:46.515Z,4180.00
2019-03-28T04:59:46.659Z,4148.00
2019-03-28T05:00:46.576Z,4116.00
2019-03-28T05:01:59.706Z,4092.00
2019-03-28T05:02:47.462Z,4096.00
2019-03-28T05:03:46.454Z,4116.00
2019-03-28T05:04:46.439Z,4116.00
2019-03-28T05:05:46.431Z,4124.00
2019-03-28T05:06:46.416Z,4132.00
2019-03-28T05:07:46.407Z,4132.00
2019-03-28T05:08:46.397Z,4120.00
2019-03-28T05:09:46.568Z,4112.00
2019-03-28T05:10:46.373Z,4116.00
2019-03-28T05:11:46.360Z,4140.00
2019-03-28T05:12:46.354Z,4176.00
2019-03-28T05:13:46.357Z,4220.00
2019-03-28T05:14:46.334Z,4276.00
2019-03-28T05:15:57.767Z,4356.00
2019-03-28T05:16:46.308Z,4452.00
2019-03-28T05:17:46.300Z,4588.00
2019-03-28T05:18:46.287Z,4756.00
2019-03-28T05:19:46.275Z,4944.00
2019-03-28T05:20:46.291Z,5148.00
2019-03-28T05:21:46.264Z,5340.00
2019-03-28T05:22:46.243Z,5516.00
2019-03-28T05:23:46.241Z,5668.00
2019-03-28T05:24:46.223Z,5756.00
2019-03-28T05:25:46.224Z,5820.00
2019-03-28T05:26:46.215Z,5872.00
2019-03-28T05:27:46.195Z,5872.00
2019-03-28T05:28:56.988Z,5860.00
2019-03-28T05:29:47.172Z,5820.00
2019-03-28T05:30:46.160Z,5780.00
2019-03-28T05:31:46.159Z,5752.00
2019-03-28T05:32:46.141Z,5748.00
2019-03-28T05:33:46.126Z,5752.00
2019-03-28T05:34:46.119Z,5788.00
2019-03-28T05:35:46.119Z,5836.00
2019-03-28T05:36:46.129Z,5916.00
2019-03-28T05:37:46.091Z,6016.00
2019-03-28T05:38:46.074Z,6140.00
2019-03-28T05:39:46.068Z,6296.00
2019-03-28T05:40:46.054Z,6444.00
2019-03-28T05:41:46.054Z,6596.00
2019-03-28T05:42:46.071Z,6740.00
2019-03-28T05:43:46.025Z,6808.00
2019-03-28T05:44:46.012Z,6836.00
2019-03-28T05:45:47.621Z,6880.00
2019-03-28T05:46:56.150Z,6876.00
2019-03-28T05:47:45.978Z,6964.00
2019-03-28T05:48:45.983Z,7136.00
2019-03-28T05:49:45.966Z,7296.00
2019-03-28T05:50:45.949Z,7456.00
2019-03-28T05:51:45.940Z,7576.00
2019-03-28T05:52:45.927Z,7652.00
2019-03-28T05:53:46.525Z,7752.00
2019-03-28T05:54:45.909Z,7800.00
2019-03-28T05:55:45.897Z,7816.00
2019-03-28T05:56:45.892Z,7792.00
2019-03-28T05:57:45.879Z,7716.00
2019-03-28T05:58:46.043Z,7612.00
2019-03-28T05:59:45.851Z,7484.00
2019-03-28T06:00:45.848Z,7348.00
2019-03-28T06:01:45.842Z,7216.00
2019-03-28T06:02:45.828Z,7108.00
2019-03-28T06:03:45.813Z,7016.00
2019-03-28T06:04:45.974Z,6956.00
2019-03-28T06:05:45.790Z,6936.00
2019-03-28T06:06:45.783Z,6944.00
2019-03-28T06:07:45.776Z,6980.00
2019-03-28T06:08:45.768Z,7016.00
2019-03-28T06:09:45.747Z,7100.00
2019-03-28T06:10:45.808Z,7232.00
2019-03-28T06:11:45.723Z,7384.00
2019-03-28T06:12:45.720Z,7560.00
2019-03-28T06:13:45.717Z,7736.00
2019-03-28T06:14:45.701Z,7872.00
2019-03-28T06:15:45.699Z,7960.00
2019-03-28T06:16:45.680Z,7908.00
2019-03-28T06:17:55.971Z,7848.00
2019-03-28T06:18:46.342Z,7644.00
2019-03-28T06:19:45.642Z,7380.00
2019-03-28T06:20:45.631Z,7216.00
2019-03-28T06:21:45.788Z,7152.00
2019-03-28T06:22:45.708Z,7104.00
2019-03-28T06:23:45.597Z,7184.00
2019-03-28T06:24:45.597Z,7456.00
2019-03-28T06:25:45.586Z,7844.00
2019-03-28T06:26:45.586Z,8280.00
2019-03-28T06:27:45.567Z,8752.00
2019-03-28T06:28:45.546Z,9220.00
2019-03-28T06:29:45.546Z,9664.00
2019-03-28T06:30:45.543Z,10116.00
2019-03-28T06:31:55.298Z,10448.00
2019-03-28T06:32:46.544Z,10916.00
2019-03-28T06:33:45.499Z,11128.00
2019-03-28T06:34:45.486Z,11252.00
2019-03-28T06:35:45.479Z,11836.00
2019-03-28T06:36:45.459Z,11896.00
2019-03-28T06:37:45.463Z,11836.00
2019-03-28T06:38:45.453Z,11816.00
2019-03-28T06:39:45.435Z,11760.00
2019-03-28T06:40:45.432Z,11808.00
2019-03-28T06:41:45.420Z,12308.00
2019-03-28T06:42:45.409Z,13076.00
2019-03-28T06:43:45.434Z,13988.00
2019-03-28T06:44:45.382Z,15696.00
2019-03-28T06:45:45.368Z,17216.00
2019-03-28T06:46:46.370Z,19392.00
2019-03-28T06:47:45.343Z,19936.00
2019-03-28T06:48:57.298Z,19584.00
2019-03-28T06:49:45.365Z,18784.00
2019-03-28T06:50:45.315Z,16384.00
2019-03-28T06:51:45.311Z,14368.00
2019-03-28T06:52:45.291Z,13572.00
2019-03-28T06:53:45.287Z,13624.00
2019-03-28T06:54:45.276Z,13084.00
2019-03-28T06:55:45.298Z,12300.00
2019-03-28T06:56:45.265Z,11932.00
2019-03-28T06:57:45.246Z,11740.00
2019-03-28T06:58:45.235Z,11596.00
2019-03-28T06:59:45.220Z,11480.00
2019-03-28T07:00:45.242Z,11176.00
2019-03-28T07:01:45.202Z,10984.00
2019-03-28T07:02:45.185Z,10852.00
2019-03-28T07:03:47.373Z,11048.00
2019-03-28T07:04:45.172Z,11972.00
2019-03-28T07:05:45.161Z,12484.00
2019-03-28T07:06:45.168Z,11328.00
2019-03-28T07:07:45.136Z,10972.00
2019-03-28T07:08:45.131Z,10320.00
2019-03-28T07:09:45.109Z,9960.00
2019-03-28T07:10:45.106Z,9832.00
2019-03-28T07:11:45.092Z,10040.00
2019-03-28T07:12:45.103Z,10440.00
2019-03-28T07:13:45.070Z,10900.00
2019-03-28T07:14:45.058Z,11400.00
2019-03-28T07:15:45.064Z,11944.00
2019-03-28T07:16:45.184Z,12328.00
2019-03-28T07:17:45.031Z,12612.00
2019-03-28T07:18:45.031Z,12800.00
2019-03-28T07:19:54.935Z,12820.00
2019-03-28T07:20:45.000Z,12572.00
2019-03-28T07:21:45.033Z,20160.00
2019-03-28T07:22:46.144Z,17824.00
2019-03-28T07:23:45.002Z,11824.00
2019-03-28T07:24:44.952Z,9712.00
2019-03-28T07:25:44.945Z,9912.00
2019-03-28T07:26:44.930Z,10232.00
2019-03-28T07:27:44.920Z,9056.00
2019-03-28T07:28:44.915Z,9168.00
2019-03-28T07:29:50.687Z,9644.00
2019-03-28T07:30:45.888Z,10460.00
2019-03-28T07:31:44.889Z,12592.00
2019-03-28T07:32:44.870Z,13376.00
2019-03-28T07:33:44.863Z,15088.00
2019-03-28T07:34:44.893Z,16928.00
2019-03-28T07:35:44.841Z,24576.00
2019-03-28T07:36:44.827Z,21408.00
2019-03-28T07:37:44.813Z,11024.00
2019-03-28T07:38:44.804Z,10644.00
2019-03-28T07:39:44.797Z,11020.00
2019-03-28T07:40:44.824Z,12440.00
2019-03-28T07:41:44.788Z,16480.00
2019-03-28T07:42:44.796Z,18656.00
2019-03-28T07:43:44.754Z,18048.00
2019-03-28T07:44:44.744Z,23040.00
2019-03-28T07:45:44.745Z,19808.00
2019-03-28T07:46:47.511Z,38560.00
2019-03-28T07:47:44.736Z,54016.00
2019-03-28T07:48:44.701Z,55648.00
2019-03-28T07:49:45.500Z,55776.00
2019-03-28T07:50:57.109Z,58784.00
2019-03-28T07:51:44.661Z,58624.00
2019-03-28T07:52:44.663Z,49568.00
2019-03-28T07:53:44.648Z,18144.00
2019-03-28T07:54:44.637Z,13864.00
2019-03-28T07:55:44.792Z,13320.00
2019-03-28T07:56:44.629Z,13256.00
2019-03-28T07:57:44.604Z,15548.00
2019-03-28T07:58:44.589Z,26880.00
2019-03-28T07:59:44.580Z,26048.00
2019-03-28T08:00:44.571Z,21472.00
2019-03-28T08:01:44.587Z,22656.00
2019-03-28T08:02:44.559Z,29312.00
2019-03-28T08:03:44.535Z,45856.00
2019-03-28T08:04:44.523Z,34176.00
2019-03-28T08:05:44.558Z,27584.00
2019-03-28T08:06:50.035Z,22752.00
2019-03-28T08:07:46.452Z,16480.00
2019-03-28T08:08:44.489Z,15056.00
2019-03-28T08:09:51.451Z,13724.00
2019-03-28T08:10:44.459Z,13156.00
2019-03-28T08:11:44.489Z,13592.00
2019-03-28T08:12:44.446Z,14692.00
2019-03-28T08:13:51.414Z,18144.00
2019-03-28T08:14:44.419Z,21472.00
2019-03-28T08:15:44.407Z,25088.00
2019-03-28T08:16:44.398Z,30880.00
2019-03-28T08:17:44.468Z,38048.00
2019-03-28T08:18:45.394Z,39456.00
2019-03-28T08:19:44.367Z,38432.00
2019-03-28T08:20:44.360Z,27776.00
2019-03-28T08:21:44.342Z,25728.00
2019-03-28T08:22:44.335Z,25120.00
2019-03-28T08:23:44.362Z,17728.00
2019-03-28T08:24:44.373Z,16928.00
2019-03-28T08:25:44.296Z,16736.00
2019-03-28T08:26:44.288Z,27616.00
2019-03-28T08:27:44.490Z,40352.00
2019-03-28T08:28:44.275Z,45664.00
2019-03-28T08:29:44.265Z,43520.00
2019-03-28T08:30:45.504Z,42016.00
2019-03-28T08:31:44.232Z,36096.00
2019-03-28T08:32:44.230Z,35008.00
2019-03-28T08:33:44.252Z,37472.00
2019-03-28T08:34:44.720Z,34176.00
2019-03-28T08:35:44.195Z,32352.00
2019-03-28T08:36:44.181Z,37824.00
2019-03-28T08:37:44.191Z,49408.00
2019-03-28T08:38:44.167Z,53568.00
2019-03-28T08:39:44.626Z,55680.00
2019-03-28T08:40:44.156Z,55360.00
2019-03-28T08:41:44.128Z,58208.00
2019-03-28T08:42:44.120Z,59584.00
2019-03-28T08:43:44.107Z,60896.00
2019-03-28T08:44:54.180Z,53600.00
2019-03-28T08:45:44.127Z,35040.00
2019-03-28T08:46:44.075Z,27040.00
2019-03-28T08:47:44.069Z,35648.00
2019-03-28T08:48:44.052Z,28448.00
2019-03-28T08:49:44.040Z,19264.00
2019-03-28T08:50:44.034Z,19040.00
2019-03-28T08:51:44.056Z,19584.00
2019-03-28T08:52:44.011Z,22016.00
2019-03-28T08:53:43.997Z,20320.00
2019-03-28T08:54:43.995Z,19904.00
2019-03-28T08:55:43.971Z,27264.00
2019-03-28T08:56:43.976Z,36960.00
2019-03-28T08:57:43.994Z,43296.00
2019-03-28T08:58:43.948Z,43776.00
2019-03-28T08:59:43.946Z,44928.00
2019-03-28T09:00:51.629Z,43744.00
2019-03-28T09:01:44.919Z,29344.00
2019-03-28T09:02:43.961Z,34656.00
2019-03-28T09:03:43.903Z,36576.00
2019-03-28T09:04:43.871Z,45664.00
2019-03-28T09:05:43.874Z,45536.00
2019-03-28T09:06:43.855Z,40032.00
2019-03-28T09:07:43.857Z,33664.00
2019-03-28T09:08:43.870Z,32320.00
2019-03-28T09:09:43.816Z,30848.00
2019-03-28T09:10:43.810Z,26176.00
2019-03-28T09:11:43.820Z,23328.00
2019-03-28T09:12:43.794Z,21056.00
2019-03-28T09:13:43.775Z,21952.00
2019-03-28T09:14:43.777Z,30048.00
2019-03-28T09:15:53.860Z,33056.00
2019-03-28T09:16:43.749Z,40896.00
2019-03-28T09:17:43.738Z,43648.00
2019-03-28T09:18:43.760Z,50528.00
2019-03-28T09:19:43.709Z,58272.00
2019-03-28T09:20:43.743Z,60192.00
2019-03-28T09:21:43.694Z,69376.00
2019-03-28T09:22:43.680Z,77632.00
2019-03-28T09:23:43.686Z,75264.00
2019-03-28T09:24:43.655Z,76512.00
2019-03-28T09:25:43.673Z,81472.00
2019-03-28T09:26:43.649Z,81120.00
2019-03-28T09:27:43.636Z,82432.00
2019-03-28T09:28:43.619Z,84800.00
2019-03-28T09:29:43.608Z,80928.00
2019-03-28T09:30:48.673Z,72864.00
2019-03-28T09:31:44.595Z,82560.00
2019-03-28T09:32:43.573Z,88032.00
2019-03-28T09:33:43.565Z,80736.00
2019-03-28T09:34:43.562Z,35072.00
2019-03-28T09:35:43.664Z,32640.00
2019-03-28T09:36:43.534Z,45440.00
2019-03-28T09:37:43.519Z,57504.00
2019-03-28T09:38:43.513Z,61088.00
2019-03-28T09:39:43.550Z,60480.00
2019-03-28T09:40:43.484Z,66656.00
2019-03-28T09:41:43.479Z,61632.00
2019-03-28T09:42:43.474Z,51328.00
2019-03-28T09:43:54.645Z,53280.00
2019-03-28T09:44:44.447Z,53184.00
2019-03-28T09:45:43.439Z,53184.00
2019-03-28T09:46:53.941Z,51328.00
2019-03-28T09:47:43.406Z,55200.00
2019-03-28T09:48:43.405Z,50464.00
2019-03-28T09:49:43.397Z,53952.00
2019-03-28T09:50:43.381Z,50496.00
2019-03-28T09:51:43.403Z,46112.00
2019-03-28T09:52:43.354Z,42816.00
2019-03-28T09:53:43.354Z,40736.00
2019-03-28T09:54:43.338Z,41472.00
2019-03-28T09:55:43.328Z,39744.00
2019-03-28T09:56:43.312Z,39872.00
2019-03-28T09:57:43.317Z,43456.00
2019-03-28T09:58:43.304Z,48864.00
2019-03-28T09:59:43.278Z,48384.00
2019-03-28T10:00:43.272Z,49248.00
2019-03-28T10:01:43.269Z,58048.00
2019-03-28T10:02:44.246Z,62432.00
2019-03-28T10:03:43.237Z,69856.00
2019-03-28T10:04:43.242Z,71456.00
2019-03-28T10:05:43.215Z,75904.00
2019-03-28T10:06:43.207Z,86176.00
2019-03-28T10:07:43.234Z,90848.00
2019-03-28T10:08:43.200Z,85824.00
2019-03-28T10:09:43.188Z,77216.00
2019-03-28T10:10:43.162Z,71296.00
2019-03-28T10:11:43.152Z,65216.00
2019-03-28T10:12:44.188Z,60640.00
2019-03-28T10:13:43.137Z,57568.00
2019-03-28T10:14:43.119Z,52224.00
2019-03-28T10:15:43.824Z,49760.00
2019-03-28T10:16:43.140Z,48352.00
2019-03-28T10:17:53.395Z,45504.00
2019-03-28T10:18:43.086Z,47808.00
2019-03-28T10:19:43.100Z,45248.00
2019-03-28T10:20:43.059Z,45760.00
2019-03-28T10:21:43.050Z,42720.00
2019-03-28T10:22:43.042Z,43456.00
2019-03-28T10:23:44.336Z,45056.00
2019-03-28T10:24:43.016Z,47872.00
2019-03-28T10:25:43.297Z,54208.00
2019-03-28T10:26:42.992Z,58880.00
2019-03-28T10:27:42.981Z,65920.00
2019-03-28T10:28:42.977Z,71136.00
2019-03-28T10:29:42.960Z,67744.00
2019-03-28T10:30:43.007Z,68256.00
2019-03-28T10:31:42.959Z,61600.00
2019-03-28T10:32:42.935Z,66272.00
2019-03-28T10:33:42.920Z,68800.00
2019-03-28T10:34:42.907Z,68768.00
2019-03-28T10:35:43.042Z,66240.00
2019-03-28T10:36:42.895Z,57184.00
2019-03-28T10:37:42.874Z,53248.00
2019-03-28T10:38:42.867Z,47936.00
2019-03-28T10:39:42.855Z,55488.00
2019-03-28T10:40:42.856Z,64352.00
2019-03-28T10:41:42.850Z,59520.00
2019-03-28T10:42:42.828Z,56480.00
2019-03-28T10:43:42.817Z,52064.00
2019-03-28T10:44:42.804Z,45408.00
2019-03-28T10:45:42.787Z,38496.00
2019-03-28T10:46:42.786Z,33920.00
2019-03-28T10:47:42.780Z,35360.00
2019-03-28T10:48:54.426Z,37664.00
2019-03-28T10:49:42.746Z,32960.00
2019-03-28T10:50:45.719Z,31584.00
2019-03-28T10:51:42.729Z,31424.00
2019-03-28T10:52:42.751Z,32192.00
2019-03-28T10:53:42.703Z,30816.00
2019-03-28T10:54:42.697Z,31744.00
2019-03-28T10:55:42.817Z,34432.00
2019-03-28T10:56:51.848Z,36992.00
2019-03-28T10:57:43.769Z,36448.00
2019-03-28T10:58:42.880Z,30336.00
2019-03-28T10:59:43.056Z,29472.00
2019-03-28T11:00:42.634Z,28384.00
2019-03-28T11:01:49.991Z,26528.00
2019-03-28T11:02:43.609Z,24480.00
2019-03-28T11:03:42.611Z,24000.00
2019-03-28T11:04:42.589Z,23424.00
2019-03-28T11:05:42.581Z,22624.00
2019-03-28T11:06:42.571Z,23104.00
2019-03-28T11:07:42.606Z,25280.00
2019-03-28T11:08:42.758Z,27744.00
2019-03-28T11:09:42.566Z,26784.00
2019-03-28T11:10:42.520Z,29408.00
2019-03-28T11:11:42.519Z,32608.00
2019-03-28T11:12:42.506Z,37792.00
2019-03-28T11:13:42.537Z,42400.00
2019-03-28T11:14:42.483Z,41344.00
2019-03-28T11:15:42.464Z,40192.00
2019-03-28T11:16:42.461Z,36416.00
2019-03-28T11:17:42.458Z,33568.00
2019-03-28T11:18:42.435Z,37952.00
2019-03-28T11:19:55.802Z,36512.00
2019-03-28T11:20:42.420Z,34816.00
2019-03-28T11:21:42.404Z,29824.00
2019-03-28T11:22:42.392Z,29184.00
2019-03-28T11:23:42.379Z,27552.00
2019-03-28T11:24:42.376Z,26752.00
2019-03-28T11:25:42.366Z,27264.00
2019-03-28T11:26:42.355Z,28416.00
2019-03-28T11:27:42.339Z,27840.00
2019-03-28T11:28:42.511Z,27488.00
2019-03-28T11:29:42.317Z,26752.00
2019-03-28T11:30:42.341Z,25664.00
2019-03-28T11:31:46.928Z,24736.00
2019-03-28T11:32:43.282Z,25088.00
2019-03-28T11:33:42.276Z,24768.00
2019-03-28T11:34:42.259Z,22336.00
2019-03-28T11:35:42.253Z,23296.00
2019-03-28T11:36:42.254Z,22720.00
2019-03-28T11:37:42.239Z,25120.00
2019-03-28T11:38:42.218Z,27648.00
2019-03-28T11:39:42.214Z,25920.00
2019-03-28T11:40:43.016Z,40448.00
2019-03-28T11:41:42.183Z,45216.00
2019-03-28T11:42:42.179Z,52352.00
2019-03-28T11:43:42.160Z,57152.00
2019-03-28T11:44:42.167Z,53120.00
2019-03-28T11:45:42.217Z,55808.00
2019-03-28T11:46:42.142Z,51872.00
2019-03-28T11:47:42.147Z,49024.00
2019-03-28T11:48:42.116Z,46560.00
2019-03-28T11:49:42.099Z,41696.00
2019-03-28T11:50:52.150Z,42400.00
2019-03-28T11:51:42.115Z,42784.00
2019-03-28T11:52:42.801Z,38816.00
2019-03-28T11:53:42.060Z,44256.00
2019-03-28T11:54:42.046Z,56800.00
2019-03-28T11:55:42.033Z,64288.00
2019-03-28T11:56:42.023Z,63584.00
2019-03-28T11:57:42.036Z,57184.00
2019-03-28T11:58:42.000Z,56800.00
2019-03-28T11:59:41.995Z,54816.00
2019-03-28T12:00:42.509Z,52736.00
2019-03-28T12:01:41.979Z,52160.00
2019-03-28T12:02:42.032Z,44896.00
2019-03-28T12:03:42.033Z,50944.00
2019-03-28T12:04:41.941Z,52480.00
2019-03-28T12:05:41.947Z,59552.00
2019-03-28T12:06:41.927Z,59328.00
2019-03-28T12:07:41.911Z,47008.00
2019-03-28T12:08:41.897Z,46304.00
2019-03-28T12:09:41.933Z,45952.00
2019-03-28T12:10:41.882Z,45600.00
2019-03-28T12:11:41.913Z,44000.00
2019-03-28T12:12:41.869Z,40128.00
2019-03-28T12:13:45.119Z,36096.00
2019-03-28T12:14:41.836Z,33920.00
2019-03-28T12:15:41.845Z,32928.00